Time;durP1;ratioP1;P1;durP2;ratioP2;P2;SDS_P1;SDS_P2;PMS_P1;PMS_P2;Temp;Humidity;BMP_temperature;BMP_pressure;BME280_temperature;BME280_humidity;BME280_pressure;Samples;Min_cycle;Max_cycle;Signal;HPM_P1;HPM_P2
2024/02/08 00:00:39;;;;;;;11.63;4.80;;;;;;;-10.10;58.79;97008.44;5048982;28;20374;-59
2024/02/08 00:03:08;;;;;;;11.57;4.88;;;;;;;-10.15;59.47;97041.41;5048800;27;20036;-56
2024/02/08 00:05:36;;;;;;;12.57;5.53;;;;;;;-10.59;59.67;96991.50;5048393;28;20105;-54
2024/02/08 00:08:02;;;;;;;10.15;4.90;;;;;;;-10.40;59.88;97052.81;5047932;28;20426;-54
2024/02/08 00:10:27;;;;;;;11.23;5.40;;;;;;;-10.48;59.76;97047.97;5048901;28;20040;-53
2024/02/08 00:12:53;;;;;;;10.70;4.93;;;;;;;-10.59;59.97;97076.84;5048856;28;20072;-56
2024/02/08 00:15:18;;;;;;;12.35;5.50;;;;;;;-10.63;59.91;97087.34;5048220;28;20420;-58
2024/02/08 00:17:47;;;;;;;9.90;4.82;;;;;;;-10.68;60.07;97079.78;5048725;28;20483;-53
2024/02/08 00:20:15;;;;;;;12.02;4.75;;;;;;;-10.76;59.97;97093.00;5048507;28;20460;-54
2024/02/08 00:22:46;;;;;;;12.40;5.05;;;;;;;-10.78;60.19;97099.13;5048797;28;20376;-57
2024/02/08 00:25:12;;;;;;;10.52;4.68;;;;;;;-10.90;60.23;97079.78;5048838;28;20445;-55
2024/02/08 00:27:38;;;;;;;12.38;4.88;;;;;;;-10.84;60.19;97113.13;5048239;28;20037;-55
2024/02/08 00:30:04;;;;;;;11.27;4.93;;;;;;;-10.89;59.97;97117.66;5048985;28;20043;-55
2024/02/08 00:32:33;;;;;;;12.63;5.07;;;;;;;-10.86;60.38;97117.53;5049186;28;20035;-59
2024/02/08 00:35:03;;;;;;;12.23;4.95;;;;;;;-10.84;59.54;97118.31;5048483;28;20029;-59
2024/02/08 00:37:31;;;;;;;13.13;4.97;;;;;;;-10.95;59.93;97110.97;5049140;28;20437;-57
2024/02/08 00:39:57;;;;;;;13.48;5.75;;;;;;;-10.90;59.70;97128.88;5047780;28;20453;-56
2024/02/08 00:42:22;;;;;;;10.05;5.15;;;;;;;-11.02;59.56;97125.84;5044112;28;20044;-58
2024/02/08 00:44:50;;;;;;;10.80;5.10;;;;;;;-11.01;59.70;97142.19;5048768;28;20035;-60
2024/02/08 00:47:15;;;;;;;11.20;5.35;;;;;;;-11.20;59.87;97129.94;5131785;27;20482;-56
2024/02/08 00:49:41;;;;;;;11.43;5.55;;;;;;;-11.47;59.83;97111.13;5136285;27;20063;-58
2024/02/08 00:52:08;;;;;;;12.98;5.18;;;;;;;-11.27;60.01;97151.75;5136574;27;20035;-59
2024/02/08 00:54:37;;;;;;;17.45;5.13;;;;;;;-11.30;60.40;97159.59;5136973;27;20082;-60
2024/02/08 00:57:10;;;;;;;10.38;4.93;;;;;;;-11.40;60.27;97170.25;5135821;27;20061;-59
2024/02/08 00:59:39;;;;;;;13.85;5.90;;;;;;;-11.30;60.65;97191.44;5122403;27;20035;-55
2024/02/08 01:02:06;;;;;;;13.15;6.10;;;;;;;-11.29;60.62;97187.94;5050607;28;20029;-59
2024/02/08 01:04:32;;;;;;;13.35;5.50;;;;;;;-11.29;60.66;97207.78;5051910;27;20036;-58
2024/02/08 01:06:58;;;;;;;12.20;5.18;;;;;;;-11.32;60.36;97202.72;5051634;28;20037;-59
2024/02/08 01:09:25;;;;;;;13.27;5.93;;;;;;;-11.47;60.67;97202.34;5050511;28;20112;-57
2024/02/08 01:11:51;;;;;;;11.38;5.13;;;;;;;-11.37;60.34;97220.09;5052188;28;20024;-58
2024/02/08 01:14:21;;;;;;;14.90;5.30;;;;;;;-11.49;60.40;97203.28;5052175;28;20036;-60
2024/02/08 01:16:54;;;;;;;12.63;5.20;;;;;;;-11.43;60.20;97227.16;5051216;28;20127;-56
2024/02/08 01:19:22;;;;;;;13.52;5.68;;;;;;;-11.77;60.46;97194.75;5051405;28;20082;-59
2024/02/08 01:21:49;;;;;;;12.63;5.80;;;;;;;-11.49;60.34;97249.75;5051459;28;20114;-60
2024/02/08 01:24:18;;;;;;;14.85;5.85;;;;;;;-11.50;60.22;97253.25;5051545;28;20054;-60
2024/02/08 01:26:48;;;;;;;17.90;5.47;;;;;;;-11.60;60.24;97244.97;5051517;28;20121;-54
2024/02/08 01:29:14;;;;;;;10.98;5.38;;;;;;;-11.56;60.76;97268.06;5051175;28;20029;-57
2024/02/08 01:31:40;;;;;;;12.15;5.82;;;;;;;-11.56;60.16;97275.78;5050258;28;20075;-58
2024/02/08 01:34:07;;;;;;;10.98;5.32;;;;;;;-11.56;60.75;97291.28;5040901;28;20033;-57
2024/02/08 01:36:36;;;;;;;15.20;5.80;;;;;;;-11.47;60.45;97299.63;5051444;28;20032;-60
2024/02/08 01:39:04;;;;;;;13.43;5.32;;;;;;;-11.42;60.30;97300.34;5051265;28;20104;-59
2024/02/08 01:41:34;;;;;;;13.13;5.43;;;;;;;-11.36;59.87;97312.19;5051273;28;20037;-58
2024/02/08 01:44:04;;;;;;;13.10;5.40;;;;;;;-11.37;59.40;97332.00;5050489;28;20085;-57
2024/02/08 01:46:38;;;;;;;12.38;5.10;;;;;;;-11.43;59.71;97314.97;5050324;28;20469;-56
2024/02/08 01:49:17;;;;;;;12.45;5.18;;;;;;;-11.37;60.01;97333.75;5051172;28;20037;-58
2024/02/08 01:51:44;;;;;;;13.00;5.65;;;;;;;-11.46;59.81;97325.41;5050950;28;20105;-56
2024/02/08 01:54:12;;;;;;;12.10;5.32;;;;;;;-11.48;59.56;97326.34;5051575;28;20097;-56
2024/02/08 01:56:42;;;;;;;11.30;5.05;;;;;;;-11.51;59.84;97347.09;5049973;28;20037;-58
2024/02/08 01:59:19;;;;;;;10.85;5.43;;;;;;;-11.49;60.19;97341.00;5049889;28;20037;-59
2024/02/08 02:01:56;;;;;;;17.58;5.57;;;;;;;-11.49;60.03;97338.41;5050704;28;20185;-55
2024/02/08 02:04:22;;;;;;;12.50;4.85;;;;;;;-11.54;60.39;97342.88;5051115;28;20029;-55
2024/02/08 02:06:48;;;;;;;11.38;5.32;;;;;;;-11.56;60.09;97349.84;5049864;27;20037;-56
2024/02/08 02:09:25;;;;;;;10.23;4.93;;;;;;;-11.66;60.07;97349.28;5050698;28;20035;-57
2024/02/08 02:11:54;;;;;;;11.15;5.40;;;;;;;-11.70;60.05;97368.31;5050082;28;20029;-55
2024/02/08 02:14:26;;;;;;;9.65;4.75;;;;;;;-11.82;60.34;97380.72;5049635;28;20373;-57
2024/02/08 02:17:15;;;;;;;15.88;6.05;;;;;;;-11.80;60.44;97380.69;5049617;28;20035;-54
2024/02/08 02:19:42;;;;;;;15.02;5.60;;;;;;;-11.94;60.30;97391.38;5050826;28;20033;-56
2024/02/08 02:22:10;;;;;;;12.45;5.63;;;;;;;-12.00;60.30;97386.41;5049378;28;20036;-55
2024/02/08 02:24:37;;;;;;;15.10;5.97;;;;;;;-12.07;60.52;97393.50;5050552;28;20043;-57
2024/02/08 02:27:07;;;;;;;12.73;5.30;;;;;;;-12.04;60.89;97393.44;5050787;28;20068;-55
2024/02/08 02:29:38;;;;;;;12.73;5.88;;;;;;;-12.08;60.84;97388.41;5050356;28;20040;-58
2024/02/08 02:32:10;;;;;;;13.65;6.00;;;;;;;-12.15;60.88;97392.91;5049939;28;20057;-58
2024/02/08 02:34:38;;;;;;;14.80;5.95;;;;;;;-12.18;60.99;97391.22;5050776;28;20037;-56
2024/02/08 02:37:04;;;;;;;14.90;5.95;;;;;;;-12.35;60.72;97365.94;5048791;28;20157;-60
2024/02/08 02:39:31;;;;;;;11.38;5.53;;;;;;;-12.29;60.72;97391.56;5049894;28;20472;-59
2024/02/08 02:41:58;;;;;;;13.52;5.90;;;;;;;-12.29;60.93;97399.31;5050918;28;20103;-55
2024/02/08 02:44:27;;;;;;;15.75;5.55;;;;;;;-12.29;60.76;97399.31;5050546;28;20037;-57
2024/02/08 02:47:05;;;;;;;13.57;6.35;;;;;;;-12.34;61.00;97402.88;5049538;28;20029;-58
2024/02/08 02:49:36;;;;;;;11.98;5.18;;;;;;;-12.38;61.29;97404.69;5049777;28;20033;-60
2024/02/08 02:52:07;;;;;;;15.48;5.70;;;;;;;-12.80;61.14;97353.41;5049576;28;20044;-56
2024/02/08 02:54:36;;;;;;;15.05;6.03;;;;;;;-12.47;60.97;97429.00;5050083;28;20033;-57
2024/02/08 02:57:03;;;;;;;14.80;5.50;;;;;;;-12.52;61.33;97435.19;5049868;28;20033;-59
2024/02/08 02:59:30;;;;;;;12.73;5.95;;;;;;;-12.57;61.45;97436.13;5049803;28;20029;-60
2024/02/08 03:01:56;;;;;;;12.70;5.68;;;;;;;-12.59;61.92;97440.47;5050496;28;20090;-57
2024/02/08 03:04:22;;;;;;;13.85;5.93;;;;;;;-12.57;61.75;97454.16;5050056;28;20029;-53
2024/02/08 03:06:53;;;;;;;14.90;5.95;;;;;;;-12.52;61.90;97468.69;5049998;27;20040;-54
2024/02/08 03:09:23;;;;;;;16.33;5.80;;;;;;;-12.48;61.81;97476.28;5049345;28;20097;-53
2024/02/08 03:11:50;;;;;;;16.88;5.85;;;;;;;-12.38;61.68;97478.66;5048697;28;20124;-59
2024/02/08 03:14:18;;;;;;;13.50;5.13;;;;;;;-12.35;61.41;97471.66;5049971;28;20043;-57
2024/02/08 03:16:45;;;;;;;12.70;5.22;;;;;;;-12.37;61.16;97476.00;5049511;28;20064;-58
2024/02/08 03:19:11;;;;;;;9.20;4.57;;;;;;;-12.37;61.22;97481.16;5050135;28;20089;-60
2024/02/08 03:21:40;;;;;;;11.63;5.57;;;;;;;-12.28;61.25;97469.75;5049756;28;20036;-56
2024/02/08 03:24:09;;;;;;;11.55;4.80;;;;;;;-12.34;61.05;97483.66;5049366;28;20460;-55
2024/02/08 03:26:45;;;;;;;12.40;5.68;;;;;;;-12.44;61.54;97487.38;5049619;28;20333;-56
2024/02/08 03:29:11;;;;;;;13.82;5.40;;;;;;;-12.43;62.01;97497.63;5049883;28;20125;-53
2024/02/08 03:31:45;;;;;;;13.80;5.15;;;;;;;-12.44;61.75;97495.94;5049875;28;20098;-57
2024/02/08 03:34:16;;;;;;;10.90;4.97;;;;;;;-12.32;61.31;97494.78;5049590;28;20029;-59
2024/02/08 03:36:51;;;;;;;13.93;4.95;;;;;;;-12.33;61.34;97505.97;5048239;28;20452;-58
2024/02/08 03:39:25;;;;;;;;;;;;;;;-12.19;61.74;97499.63;5050478;28;20043;-55
2024/02/08 03:41:58;;;;;;;10.90;4.72;;;;;;;-12.29;61.61;97517.94;5049614;28;20023;-57
2024/02/08 03:44:24;;;;;;;11.48;4.95;;;;;;;-12.30;61.38;97505.91;5049278;28;20032;-55
2024/02/08 03:46:53;;;;;;;10.55;4.95;;;;;;;-12.36;61.10;97518.13;5049278;28;20033;-59
2024/02/08 03:49:20;;;;;;;11.65;4.82;;;;;;;-12.34;61.61;97500.88;5049350;28;20040;-61
2024/02/08 03:51:47;;;;;;;12.63;4.93;;;;;;;-12.33;61.35;97521.44;5048797;28;20053;-60
2024/02/08 03:54:16;;;;;;;11.77;4.47;;;;;;;-12.54;61.35;97497.06;5049028;28;20041;-52
2024/02/08 03:56:49;;;;;;;12.32;5.03;;;;;;;-12.44;61.29;97526.88;5048853;28;20441;-51
2024/02/08 03:59:26;;;;;;;9.40;4.75;;;;;;;-12.71;61.38;97479.47;5049057;28;20093;-51
2024/02/08 04:02:03;;;;;;;12.50;4.85;;;;;;;-12.57;61.74;97510.03;5049098;28;20041;-57
2024/02/08 04:04:34;;;;;;;12.25;5.50;;;;;;;-12.69;61.61;97500.88;5049053;28;20033;-59
2024/02/08 04:09:55;;;;;;;11.32;4.63;;;;;;;-12.51;61.80;97540.00;5048877;27;20032;-55
2024/02/08 04:53:39;;;;;;;9.93;4.93;;;;;;;-11.74;60.50;97506.13;5052494;28;20041;-57
2024/02/08 04:56:08;;;;;;;11.02;5.10;;;;;;;-11.13;60.95;97601.66;5051831;28;20055;-56
2024/02/08 04:58:36;;;;;;;9.40;4.70;;;;;;;-11.08;60.12;97605.88;5052330;28;20033;-55
2024/02/08 05:01:02;;;;;;;12.95;4.82;;;;;;;-11.06;60.39;97627.34;5051840;28;20029;-55
2024/02/08 05:03:28;;;;;;;9.88;4.60;;;;;;;-11.07;60.26;97634.22;5052259;28;20036;-54
2024/02/08 05:05:54;;;;;;;13.32;5.22;;;;;;;-11.02;60.10;97622.00;5051725;28;20085;-54
2024/02/08 05:08:21;;;;;;;8.88;4.80;;;;;;;-11.07;60.15;97631.63;5051800;28;20398;-57
2024/02/08 05:10:52;;;;;;;12.35;4.65;;;;;;;-11.08;59.97;97632.53;5051457;27;20097;-60
2024/02/08 05:13:17;;;;;;;10.75;4.95;;;;;;;-11.15;60.41;97636.19;5051351;28;20025;-54
2024/02/08 05:15:43;;;;;;;11.05;5.13;;;;;;;-11.19;59.93;97627.66;5051948;28;20492;-60
2024/02/08 05:18:12;;;;;;;10.48;4.50;;;;;;;-10.99;59.96;97646.94;5051303;28;20029;-58
2024/02/08 05:20:39;;;;;;;11.35;4.93;;;;;;;-11.02;59.84;97645.28;5051545;28;20330;-58
2024/02/08 05:23:04;;;;;;;10.35;5.20;;;;;;;-11.08;59.76;97647.22;5050573;28;20041;-59
2024/02/08 05:25:30;;;;;;;10.00;4.85;;;;;;;-11.08;60.11;97648.03;5051403;28;20032;-58
2024/02/08 05:27:56;;;;;;;10.90;4.57;;;;;;;-11.14;59.92;97654.22;5051314;28;20045;-61
2024/02/08 05:30:22;;;;;;;11.60;5.55;;;;;;;-11.03;59.28;97646.16;5051203;28;20109;-55
2024/02/08 05:32:48;;;;;;;11.10;5.63;;;;;;;-11.13;59.56;97653.31;5050877;28;20033;-61
2024/02/08 05:35:18;;;;;;;11.70;5.57;;;;;;;-11.27;59.58;97651.13;5051713;28;20047;-59
2024/02/08 05:37:46;;;;;;;11.73;5.55;;;;;;;-11.20;60.13;97672.47;5050573;28;20025;-60
2024/02/08 05:40:14;;;;;;;18.92;6.00;;;;;;;-11.25;59.82;97674.34;5051095;28;20065;-58
2024/02/08 05:42:47;;;;;;;9.80;5.15;;;;;;;-11.22;60.12;97673.41;5050551;28;20025;-54
2024/02/08 05:45:19;;;;;;;12.32;6.07;;;;;;;-11.31;59.80;97667.63;5051176;28;20029;-55
2024/02/08 05:47:48;;;;;;;12.90;5.18;;;;;;;-11.19;59.64;97679.34;5050820;28;20093;-61
2024/02/08 05:50:22;;;;;;;11.93;5.13;;;;;;;-11.07;59.72;97687.66;5051078;28;20136;-56
2024/02/08 05:52:57;;;;;;;;;;;;;;;-10.77;59.83;97679.91;5051369;28;20033;-57
2024/02/08 05:55:26;;;;;;;9.07;4.15;;;;;;;-10.71;58.61;97678.00;5050744;28;19913;-54
2024/02/08 05:57:58;;;;;;;18.08;5.88;;;;;;;-10.56;58.25;97668.94;5051071;28;20307;-55
2024/02/08 06:00:35;;;;;;;9.27;4.70;;;;;;;-10.16;57.93;97692.72;5049696;28;20032;-57
2024/02/08 06:03:03;;;;;;;10.43;4.93;;;;;;;-9.78;57.45;97697.56;5049711;28;20097;-60
2024/02/08 06:05:33;;;;;;;11.63;5.47;;;;;;;-9.21;56.52;97712.09;5050858;28;20065;-60
2024/02/08 06:07:59;;;;;;;12.40;5.35;;;;;;;-8.17;55.59;97708.31;5050283;28;20029;-56
2024/02/08 06:10:41;;;;;;;12.18;5.40;;;;;;;-6.80;53.05;97709.56;5051006;28;20508;-59
2024/02/08 06:13:14;;;;;;;11.30;5.40;;;;;;;-5.37;49.17;97709.88;5050689;27;20033;-59
2024/02/08 06:15:46;;;;;;;10.43;5.40;;;;;;;-4.59;47.49;97706.75;5051288;28;20033;-57
2024/02/08 06:18:25;;;;;;;13.55;5.90;;;;;;;-4.66;46.00;97663.63;5050789;28;20144;-58
2024/02/08 06:21:12;;;;;;;12.70;4.97;;;;;;;-4.85;47.03;97716.00;5049976;28;20056;-55
2024/02/08 06:23:43;;;;;;;12.38;5.30;;;;;;;-5.40;48.01;97702.22;5050903;28;20368;-58
2024/02/08 06:28:41;;;;;;;12.82;5.32;;;;;;;-6.42;48.67;97726.16;5050609;28;20037;-57
2024/02/08 06:31:07;;;;;;;12.50;5.82;;;;;;;-7.13;50.30;97737.88;5050149;28;20035;-59
2024/02/08 06:33:42;;;;;;;11.13;5.50;;;;;;;-7.66;51.43;97733.13;5050660;28;20056;-55
2024/02/08 06:36:13;;;;;;;11.60;5.70;;;;;;;-8.08;52.78;97733.91;5050600;28;20052;-58
2024/02/08 06:38:51;;;;;;;10.90;5.40;;;;;;;-8.37;53.79;97735.88;5050376;28;20048;-60
2024/02/08 06:41:24;;;;;;;10.98;5.70;;;;;;;-8.45;54.17;97737.88;5050835;28;20093;-57
2024/02/08 06:44:42;;;;;;;13.45;5.45;;;;;;;-8.69;53.94;97736.16;5050094;28;20338;-60
2024/02/08 06:46:56;;;;;;;11.65;6.03;;;;;;;-8.75;54.07;97751.09;5048737;28;20097;-57
2024/02/08 07:39:21;;;;;;;7.40;4.40;;;;;;;-2.24;41.45;97780.75;5049619;28;20781;-58
2024/02/08 07:41:43;;;;;;;11.55;4.85;;;;;;;-2.96;40.77;97754.47;5029458;28;20033;-57
2024/02/08 07:44:09;;;;;;;11.90;4.85;;;;;;;-3.19;42.51;97806.38;5019958;28;20031;-57
2024/02/08 07:46:40;;;;;;;8.70;5.22;;;;;;;-3.68;41.75;97782.03;5049075;28;20032;-56
2024/02/08 07:49:06;;;;;;;11.82;5.53;;;;;;;-4.50;43.60;97762.91;5049258;28;20150;-58
2024/02/08 07:51:33;;;;;;;10.55;4.72;;;;;;;-4.59;43.80;97820.84;5049068;27;20457;-59
2024/02/08 07:53:59;;;;;;;9.48;4.68;;;;;;;-3.75;42.81;97823.38;5049021;28;20067;-57
2024/02/08 07:56:40;;;;;;;10.18;5.18;;;;;;;-3.34;42.04;97813.34;5048315;28;20056;-55
2024/02/08 07:59:10;;;;;;;9.50;4.88;;;;;;;-3.11;41.58;97822.50;5054675;28;20031;-58
2024/02/08 08:01:38;;;;;;;10.98;4.50;;;;;;;-3.17;41.58;97817.59;5049097;28;20073;-58
2024/02/08 08:04:09;;;;;;;8.25;4.32;;;;;;;-3.29;41.55;97823.53;5049291;28;20029;-56
2024/02/08 08:06:41;;;;;;;9.70;4.40;;;;;;;-3.42;41.64;97832.06;5049111;28;20037;-58
2024/02/08 08:09:18;;;;;;;8.00;4.55;;;;;;;-3.63;42.21;97837.56;5054321;28;20350;-57
2024/02/08 08:11:46;;;;;;;7.47;4.07;;;;;;;-3.89;42.07;97823.28;5049521;28;20114;-59
2024/02/08 08:14:36;;;;;;;10.60;4.75;;;;;;;-4.20;42.21;97846.69;5048858;28;20424;-59
2024/02/08 08:17:08;;;;;;;;;;;;;;;-3.98;45.30;97862.97;5049122;28;20029;-58
2024/02/08 08:19:44;;;;;;;7.70;4.63;;;;;;;-4.50;43.60;97865.63;5054623;28;20458;-56
2024/02/08 08:27:47;;;;;;;5.90;3.33;;;;;;;-4.68;44.59;97879.59;5038848;28;20091;-58
2024/02/08 08:30:28;;;;;;;11.07;5.07;;;;;;;-4.65;44.25;97876.84;5038023;28;20032;-60
2024/02/08 08:40:47;;;;;;;11.45;4.20;;;;;;;-4.71;44.26;97874.53;5048609;28;20459;-58
2024/02/08 08:43:22;;;;;;;9.30;4.53;;;;;;;-4.88;44.58;97833.63;5047579;28;20029;-61
2024/02/08 08:45:51;;;;;;;;;;;;;;;-4.25;46.11;97874.81;5049846;28;20029;-56
2024/02/08 08:48:20;;;;;;;7.20;3.60;;;;;;;-4.53;44.11;97872.75;5040167;28;20345;-61
2024/02/08 08:50:55;;;;;;;9.60;4.82;;;;;;;-4.57;44.66;97885.16;5029825;28;20045;-62
2024/02/08 08:53:27;;;;;;;;;;;;;;;-4.25;45.76;97887.88;5040436;28;20062;-63
2024/02/08 08:55:56;;;;;;;10.18;4.78;;;;;;;-4.53;43.97;97889.28;5048650;28;19970;-61
2024/02/08 08:58:27;;;;;;;8.60;4.68;;;;;;;-4.69;44.03;97878.78;5048149;28;20433;-62
2024/02/08 09:01:03;;;;;;;7.38;3.92;;;;;;;-5.21;44.60;97856.88;5030279;28;20034;-63
2024/02/08 09:03:29;;;;;;;8.43;4.40;;;;;;;-5.37;45.00;97889.88;5028557;28;20022;-61
2024/02/08 09:05:59;;;;;;;8.32;4.38;;;;;;;-5.58;45.35;97876.03;5028974;28;20093;-61
2024/02/08 09:08:33;;;;;;;6.57;3.47;;;;;;;-5.66;45.02;97882.47;5026698;28;20134;-63
2024/02/08 09:11:03;;;;;;;8.18;3.78;;;;;;;-5.80;46.12;97887.44;5031523;28;20041;-62
2024/02/08 09:13:30;;;;;;;9.40;3.95;;;;;;;-6.02;46.07;97896.28;5050670;28;20029;-64
2024/02/08 09:15:55;;;;;;;8.18;4.32;;;;;;;-6.15;46.07;97897.72;5051789;27;20029;-62
2024/02/08 09:18:55;;;;;;;9.25;4.15;;;;;;;-6.16;47.06;97898.63;5050853;28;20036;-55
2024/02/08 09:21:10;;;;;;;8.48;3.97;;;;;;;-6.11;46.55;97883.66;5051076;28;20108;-62
2024/02/08 09:23:36;;;;;;;9.70;4.53;;;;;;;-6.15;47.25;97890.75;5038456;28;20050;-63
2024/02/08 09:26:04;;;;;;;9.18;4.55;;;;;;;-6.18;47.07;97890.03;5034415;28;20034;-63
2024/02/08 09:28:35;;;;;;;11.02;4.47;;;;;;;-6.28;46.72;97893.03;5051429;28;20120;-64
2024/02/08 09:31:16;;;;;;;8.70;4.38;;;;;;;-6.38;48.06;97884.81;5050046;28;20348;-62
2024/02/08 09:33:47;;;;;;;10.25;4.78;;;;;;;-6.33;47.90;97888.97;5051222;28;20040;-56
2024/02/08 09:36:16;;;;;;;10.30;4.90;;;;;;;-6.44;47.33;97868.59;5039424;28;20040;-57
2024/02/08 09:38:43;;;;;;;12.45;4.90;;;;;;;-6.75;47.51;97841.25;5050041;28;20813;-62
2024/02/08 09:41:16;;;;;;;11.93;4.90;;;;;;;-6.47;47.69;97886.94;5050509;28;20460;-62
2024/02/08 09:43:44;;;;;;;11.18;4.93;;;;;;;-6.92;47.48;97833.22;5050071;28;20033;-60
2024/02/08 09:46:28;;;;;;;10.02;4.93;;;;;;;-6.73;47.77;97888.91;5032431;28;20033;-62
2024/02/08 09:48:59;;;;;;;11.90;5.00;;;;;;;-6.78;48.46;97895.09;5029610;28;20045;-62
2024/02/08 09:51:26;;;;;;;9.98;4.15;;;;;;;-6.90;48.07;97885.22;5046935;28;20049;-61
2024/02/08 09:53:52;;;;;;;10.77;5.10;;;;;;;-6.96;48.29;97888.09;5040044;28;20123;-63
2024/02/08 09:56:25;;;;;;;11.85;4.70;;;;;;;-6.95;48.98;97898.41;5030661;28;20022;-60
2024/02/08 09:59:07;;;;;;;10.75;4.72;;;;;;;-7.25;48.73;97867.53;5060872;27;20037;-61
2024/02/08 10:01:42;;;;;;;9.82;4.95;;;;;;;-6.96;48.73;97914.94;5049653;27;20125;-59
2024/02/08 10:04:19;;;;;;;;;;;;;;;-6.74;49.74;97921.03;5048231;28;20518;-58
2024/02/08 10:12:29;;;;;;;10.77;4.80;;;;;;;-6.99;48.71;97930.66;5005603;28;20033;-54
2024/02/08 10:14:59;;;;;;;10.65;5.18;;;;;;;-6.96;48.57;97937.50;5038037;28;20045;-58
2024/02/08 10:17:25;;;;;;;9.00;4.55;;;;;;;-6.97;48.40;97925.41;5045271;27;20490;-60
2024/02/08 10:23:00;;;;;;;11.52;5.03;;;;;;;-6.98;48.92;97936.72;5044743;28;20032;-60
2024/02/08 10:28:21;;;;;;;8.15;4.88;;;;;;;-6.89;48.56;97944.16;5048377;28;20032;-59
2024/02/08 10:31:06;;;;;;;8.50;4.30;;;;;;;-6.79;48.88;97950.66;5048417;28;20044;-59
2024/02/08 10:33:38;;;;;;;9.93;4.97;;;;;;;-7.06;48.31;97903.22;5048802;28;20086;-61
2024/02/08 10:36:10;;;;;;;8.60;3.92;;;;;;;-6.66;48.15;97969.25;5049370;28;20029;-61
2024/02/08 10:41:44;;;;;;;8.00;3.80;;;;;;;-6.81;48.32;97970.69;5049886;28;20032;-61
2024/02/08 10:44:17;;;;;;;6.07;3.25;;;;;;;-6.89;47.91;97970.16;5033854;28;20033;-60
2024/02/08 10:46:46;;;;;;;7.97;4.05;;;;;;;-6.97;48.45;97980.03;5034576;28;20312;-58
2024/02/08 10:49:12;;;;;;;7.90;3.88;;;;;;;-7.09;48.48;97968.38;5056885;27;20116;-54
2024/02/08 10:51:43;;;;;;;10.10;3.67;;;;;;;-7.11;49.11;97965.81;5047833;27;20149;-58
2024/02/08 10:54:15;;;;;;;7.05;3.50;;;;;;;-7.07;48.71;97985.59;5048977;27;20071;-58
2024/02/08 10:56:47;;;;;;;8.45;3.92;;;;;;;-6.94;49.21;97982.53;5047968;28;20033;-59
2024/02/08 10:59:14;;;;;;;7.65;3.75;;;;;;;-6.67;48.49;97995.34;5049635;28;20065;-59
2024/02/08 11:04:20;;;;;;;8.10;3.90;;;;;;;-6.32;47.32;97997.44;5048973;28;20376;-60
2024/02/08 11:07:06;;;;;;;10.07;3.58;;;;;;;-6.18;47.26;98000.28;5049034;28;20048;-57
2024/02/08 11:09:33;;;;;;;7.18;3.40;;;;;;;-6.36;46.50;97994.97;5048931;28;20040;-56
2024/02/08 11:12:05;;;;;;;7.07;3.50;;;;;;;-6.53;46.57;98006.03;5049526;28;20035;-56
2024/02/08 11:14:40;;;;;;;7.10;3.42;;;;;;;-6.77;47.75;98011.31;5047568;28;20308;-59
2024/02/08 11:17:20;;;;;;;8.63;4.03;;;;;;;-7.08;48.13;98019.47;5048114;28;20057;-62
2024/02/08 11:20:03;;;;;;;7.10;3.20;;;;;;;-7.47;47.96;98002.72;5049143;27;20432;-59
2024/02/08 11:22:35;;;;;;;7.03;3.40;;;;;;;-7.81;48.12;98009.09;5049553;28;20448;-58
2024/02/08 11:25:20;;;;;;;8.13;3.70;;;;;;;-7.98;48.77;98015.72;5035003;28;20045;-59
2024/02/08 11:27:50;;;;;;;7.97;3.58;;;;;;;-8.15;49.74;98037.09;5044697;28;20041;-56
2024/02/08 11:30:21;;;;;;;10.85;3.75;;;;;;;-8.18;50.17;98036.34;5062132;27;20029;-63
2024/02/08 11:33:01;;;;;;;9.02;4.28;;;;;;;-8.15;50.13;98031.91;5125313;27;20118;-56
2024/02/08 11:35:31;;;;;;;9.20;3.70;;;;;;;-8.42;50.37;97986.94;5132585;27;20366;-59
2024/02/08 11:38:16;;;;;;;9.00;3.85;;;;;;;-7.88;50.20;98029.25;5096055;27;20456;-57
2024/02/08 11:40:45;;;;;;;7.47;3.92;;;;;;;-7.77;49.28;98031.47;5045745;28;20029;-58
2024/02/08 11:43:24;;;;;;;6.75;3.50;;;;;;;-7.68;49.15;98025.97;5048945;28;20044;-60
2024/02/08 11:45:53;;;;;;;5.20;3.08;;;;;;;-7.60;48.49;98037.84;5048235;28;20497;-54
2024/02/08 11:48:26;;;;;;;6.35;3.42;;;;;;;-7.39;49.05;98034.47;5048921;28;20063;-57
2024/02/08 11:50:55;;;;;;;10.43;3.88;;;;;;;-7.18;48.57;98044.97;5047128;28;20071;-56
2024/02/08 11:53:31;;;;;;;6.40;3.30;;;;;;;-6.87;47.80;98028.19;5048283;28;20453;-56
2024/02/08 11:56:07;;;;;;;12.25;4.28;;;;;;;-6.67;48.16;98044.81;5047720;28;20028;-57
2024/02/08 11:58:42;;;;;;;6.65;3.30;;;;;;;-6.51;47.39;98024.22;5057984;27;20065;-60
2024/02/08 12:01:17;;;;;;;7.90;3.85;;;;;;;-6.34;47.45;98041.75;5047497;28;20052;-66
2024/02/08 12:03:44;;;;;;;6.03;3.17;;;;;;;-6.56;46.62;98000.94;5048166;28;20041;-66
2024/02/08 12:06:18;;;;;;;7.13;3.60;;;;;;;-6.46;46.61;98048.31;5046122;28;20037;-67
2024/02/08 12:08:57;;;;;;;8.57;4.25;;;;;;;-6.45;47.77;98056.97;5124828;28;20474;-64
2024/02/08 12:11:24;;;;;;;9.35;4.00;;;;;;;-6.52;46.87;98056.38;5114415;28;20042;-67
2024/02/08 12:13:56;;;;;;;7.28;3.38;;;;;;;-6.86;47.93;98042.06;5076793;28;20035;-66
2024/02/08 12:16:25;;;;;;;7.32;3.83;;;;;;;-6.90;47.32;98058.69;5131317;28;20046;-66
2024/02/08 12:18:56;;;;;;;7.68;4.05;;;;;;;-7.00;47.77;98081.59;5133328;27;20023;-64
2024/02/08 12:21:23;;;;;;;8.57;3.63;;;;;;;-7.22;48.00;98074.63;5132187;27;20055;-65
2024/02/08 12:23:57;;;;;;;7.10;3.50;;;;;;;-7.35;47.81;98063.81;5118188;28;20023;-65
2024/02/08 12:26:26;;;;;;;7.32;3.95;;;;;;;-7.38;48.52;98067.34;5050949;27;20065;-65
2024/02/08 12:28:56;;;;;;;8.35;4.03;;;;;;;-7.44;48.47;98077.13;5048531;28;20101;-64
2024/02/08 12:31:24;;;;;;;6.63;3.42;;;;;;;-7.47;49.22;98079.84;5047713;28;20037;-64
2024/02/08 12:33:51;;;;;;;10.25;4.18;;;;;;;-7.85;49.19;98030.91;5047553;28;20086;-65
2024/02/08 12:36:19;;;;;;;11.05;4.68;;;;;;;-7.71;49.85;98082.41;5093397;28;20038;-66
2024/02/08 12:38:47;;;;;;;8.80;4.70;;;;;;;-7.79;51.06;98080.91;5036500;28;20029;-64
2024/02/08 12:41:15;;;;;;;9.90;4.53;;;;;;;-8.00;50.64;98069.47;5014572;28;20045;-65
2024/02/08 12:43:42;;;;;;;15.68;4.32;;;;;;;-8.01;50.45;98079.94;5034188;28;20030;-65
2024/02/08 12:46:08;;;;;;;8.00;3.83;;;;;;;-8.05;50.94;98089.56;5025930;28;20116;-64
2024/02/08 12:48:34;;;;;;;11.82;4.88;;;;;;;-8.22;50.35;98103.94;5039370;28;20102;-66
2024/02/08 12:51:04;;;;;;;11.57;5.13;;;;;;;-8.33;51.00;98106.03;5024220;28;20136;-64
2024/02/08 12:53:30;;;;;;;8.18;3.88;;;;;;;-8.56;50.97;98102.44;5043165;27;20029;-64
2024/02/08 12:56:11;;;;;;;18.42;10.10;;;;;;;-8.58;51.85;98080.03;5041793;27;20033;-64
2024/02/08 12:58:37;;;;;;;7.45;3.92;;;;;;;-8.54;51.38;98092.03;5044558;27;20022;-64
2024/02/08 13:01:07;;;;;;;8.27;3.97;;;;;;;-8.75;51.69;98084.00;5045083;28;20373;-65
2024/02/08 13:03:37;;;;;;;11.50;4.28;;;;;;;-8.81;52.01;98104.94;5065148;27;20037;-64
2024/02/08 13:06:04;;;;;;;8.45;4.43;;;;;;;-8.86;53.26;98107.69;5045881;28;20044;-62
2024/02/08 13:08:33;;;;;;;8.52;3.65;;;;;;;-8.94;52.90;98114.81;5051057;27;20402;-62
2024/02/08 13:11:01;;;;;;;7.22;3.90;;;;;;;-9.24;52.40;98071.59;5045530;27;20052;-62
2024/02/08 13:13:28;;;;;;;7.78;3.78;;;;;;;-9.04;52.64;98116.84;5051526;28;20052;-64
2024/02/08 13:15:58;;;;;;;8.95;4.20;;;;;;;-9.13;52.73;98128.34;5051621;28;20044;-62
2024/02/08 13:18:29;;;;;;;7.32;3.70;;;;;;;-9.13;52.75;98122.28;5047956;28;20037;-63
2024/02/08 13:20:57;;;;;;;7.53;3.53;;;;;;;-9.22;53.55;98131.16;5051475;28;20056;-64
2024/02/08 13:23:24;;;;;;;10.18;4.10;;;;;;;-9.45;53.57;98124.88;5050062;27;20047;-56
2024/02/08 13:25:54;;;;;;;9.43;3.83;;;;;;;-9.41;53.63;98142.03;5051576;27;20029;-64
2024/02/08 13:28:32;;;;;;;10.27;3.95;;;;;;;-9.39;54.05;98126.44;5051267;28;20032;-63
2024/02/08 13:30:58;;;;;;;7.35;3.30;;;;;;;-9.39;53.70;98137.69;5050728;28;20033;-64
2024/02/08 13:33:28;;;;;;;9.48;3.90;;;;;;;-9.47;53.84;98131.00;5050248;28;20060;-63
2024/02/08 13:35:54;;;;;;;9.05;3.90;;;;;;;-9.54;54.34;98136.31;5050708;28;20036;-59
2024/02/08 13:38:22;;;;;;;12.23;4.30;;;;;;;-9.59;54.12;98137.34;5050296;28;20041;-65
2024/02/08 13:40:53;;;;;;;8.25;3.63;;;;;;;-9.61;54.56;98149.50;5049365;28;20053;-65
2024/02/08 13:43:19;;;;;;;9.23;4.45;;;;;;;-9.58;53.44;98139.88;5050684;28;20029;-65
2024/02/08 13:45:46;;;;;;;10.23;3.80;;;;;;;-9.63;54.26;98153.88;5034953;28;20041;-64
2024/02/08 13:48:15;;;;;;;11.20;4.60;;;;;;;-9.71;54.94;98154.06;5050682;28;20482;-67